Time;durP1;ratioP1;P1;durP2;ratioP2;P2;SDS_P1;SDS_P2;PMS_P1;PMS_P2;Temp;Humidity;BMP_temperature;BMP_pressure;BME280_temperature;BME280_humidity;BME280_pressure;Samples;Min_cycle;Max_cycle;Signal;HPM_P1;HPM_P2
2023/06/21 00:00:22;;;;;;;20.30;11.18;;;;;;;29.03;35.05;101319.06;5005991;28;20051;-83
2023/06/21 00:03:06;;;;;;;15.88;10.95;;;;;;;28.96;34.90;101298.19;4998948;28;20214;-83
2023/06/21 00:05:33;;;;;;;21.70;10.82;;;;;;;28.98;34.82;101304.25;4993371;28;20473;-83
2023/06/21 00:08:00;;;;;;;15.90;11.02;;;;;;;28.93;34.84;101301.41;5012388;28;20048;-82
2023/06/21 00:10:35;;;;;;;20.23;10.70;;;;;;;28.87;34.64;101290.59;4984558;28;20099;-83
2023/06/21 00:13:04;;;;;;;14.48;10.63;;;;;;;28.77;35.11;101281.13;4983897;28;20530;-82
2023/06/21 00:15:30;;;;;;;18.58;10.25;;;;;;;28.67;35.19;101271.91;5011395;28;20053;-82
2023/06/21 00:18:03;;;;;;;13.15;9.43;;;;;;;28.08;35.25;101190.00;4984700;28;20468;-82
2023/06/21 00:20:30;;;;;;;13.80;9.57;;;;;;;28.68;35.32;101268.91;4983315;28;20048;-82
2023/06/21 00:23:01;;;;;;;15.75;10.82;;;;;;;28.52;34.91;101237.72;4979566;28;20132;-82
2023/06/21 00:25:35;;;;;;;16.15;10.38;;;;;;;28.85;35.04;101296.31;4969676;28;20156;-82
2023/06/21 00:28:07;;;;;;;21.23;10.75;;;;;;;28.88;34.62;101305.91;4976102;28;20049;-83
2023/06/21 00:30:36;;;;;;;20.08;8.93;;;;;;;28.87;34.02;101305.09;4983543;28;20052;-81
2023/06/21 00:33:04;;;;;;;13.32;10.55;;;;;;;28.87;34.26;101302.38;4973642;28;20045;-82
2023/06/21 00:35:33;;;;;;;15.70;10.00;;;;;;;28.71;34.75;101284.81;4983114;28;20045;-83
2023/06/21 00:38:00;;;;;;;14.32;9.98;;;;;;;28.81;34.31;101302.50;4985758;28;20048;-82
2023/06/21 00:40:29;;;;;;;12.27;9.65;;;;;;;28.70;34.53;101285.06;4995004;28;20298;-82
2023/06/21 00:43:03;;;;;;;14.55;10.20;;;;;;;28.31;34.71;101219.19;4999593;28;20106;-82
2023/06/21 00:45:38;;;;;;;11.75;9.95;;;;;;;28.47;34.86;101250.41;5001508;28;20171;-82
2023/06/21 00:48:07;;;;;;;14.75;10.43;;;;;;;28.67;34.63;101289.09;4997304;28;20095;-82
2023/06/21 00:50:38;;;;;;;16.55;10.20;;;;;;;28.46;34.88;101267.88;4984101;28;20457;-82
2023/06/21 00:53:05;;;;;;;;;;;;;;;28.65;34.77;101304.91;4988761;28;20128;-82
2023/06/21 00:55:36;;;;;;;16.38;9.20;;;;;;;28.52;34.63;101277.81;4989309;28;20362;-82
2023/06/21 00:58:08;;;;;;;21.27;9.75;;;;;;;28.42;34.91;101272.13;5004088;28;20132;-82
2023/06/21 01:00:35;;;;;;;14.68;10.32;;;;;;;28.45;34.95;101279.81;5005577;28;20400;-82
2023/06/21 01:03:09;;;;;;;13.70;9.65;;;;;;;28.57;35.18;101286.16;5003150;28;20053;-83
2023/06/21 01:05:38;;;;;;;15.32;10.40;;;;;;;28.36;35.13;101253.97;4982556;28;20814;-81
2023/06/21 01:08:29;;;;;;;18.40;10.23;;;;;;;28.48;35.23;101284.88;4938574;28;20335;-82
2023/06/21 01:11:09;;;;;;;11.55;9.63;;;;;;;28.30;35.41;101251.13;4961292;28;20050;-84
2023/06/21 01:13:43;;;;;;;15.50;9.77;;;;;;;28.45;35.33;101282.56;4968172;28;20053;-83
2023/06/21 01:16:18;;;;;;;11.43;9.45;;;;;;;28.32;35.14;101259.06;4931522;28;20165;-83
2023/06/21 01:18:50;;;;;;;12.10;9.93;;;;;;;28.28;35.38;101257.91;4970268;28;20451;-84
2023/06/21 01:21:23;;;;;;;14.00;10.18;;;;;;;28.02;35.32;101227.28;4996148;28;20448;-83
2023/06/21 01:24:27;;;;;;;17.02;9.48;;;;;;;28.23;35.71;101277.72;4998120;28;20298;-83
2023/06/21 01:26:55;;;;;;;12.50;9.20;;;;;;;28.31;35.57;101291.00;4980747;28;20300;-83
2023/06/21 01:29:33;;;;;;;14.55;10.13;;;;;;;28.26;35.71;101281.88;4995454;28;20045;-83
2023/06/21 01:32:02;;;;;;;16.38;9.85;;;;;;;28.36;35.87;101292.19;4996591;28;20368;-84
2023/06/21 01:34:35;;;;;;;13.80;10.63;;;;;;;28.28;35.83;101288.75;4997319;28;20064;-83
2023/06/21 01:37:08;;;;;;;13.88;9.48;;;;;;;28.21;36.23;101290.78;4971875;28;20535;-83
2023/06/21 01:39:36;;;;;;;15.95;10.27;;;;;;;28.12;36.42;101284.00;4991276;28;20053;-83
2023/06/21 01:42:04;;;;;;;16.13;10.27;;;;;;;28.13;36.66;101288.38;4995623;28;20050;-84
2023/06/21 01:44:33;;;;;;;18.58;10.43;;;;;;;28.10;36.48;101281.50;4980585;28;20438;-83
2023/06/21 01:47:00;;;;;;;17.45;10.07;;;;;;;28.06;37.14;101276.75;4993267;28;20096;-83
2023/06/21 01:49:33;;;;;;;11.68;10.32;;;;;;;28.03;37.06;101279.97;4956957;28;20716;-82
2023/06/21 01:52:09;;;;;;;14.02;10.20;;;;;;;27.99;37.16;101279.63;4965684;28;20288;-83
2023/06/21 01:54:41;;;;;;;18.83;11.20;;;;;;;27.90;37.08;101273.66;4986523;28;20439;-83
2023/06/21 01:57:10;;;;;;;16.92;10.15;;;;;;;27.75;37.35;101270.53;4985135;28;20831;-82
2023/06/21 01:59:38;;;;;;;13.10;9.52;;;;;;;27.69;37.38;101266.00;5000605;28;20053;-82
2023/06/21 02:02:05;;;;;;;14.20;10.43;;;;;;;27.81;37.44;101285.94;4999777;28;20065;-82
2023/06/21 02:04:33;;;;;;;18.33;10.23;;;;;;;27.70;37.73;101278.59;4984281;28;20429;-82
2023/06/21 02:07:02;;;;;;;16.73;10.27;;;;;;;27.59;37.74;101265.75;4979799;28;20081;-83
2023/06/21 02:09:33;;;;;;;15.27;10.10;;;;;;;27.55;37.85;101272.72;4959899;28;20229;-83
2023/06/21 02:12:01;;;;;;;17.50;11.13;;;;;;;27.42;37.55;101260.94;4973940;28;20042;-83
2023/06/21 02:14:31;;;;;;;13.13;9.13;;;;;;;27.33;37.77;101250.59;4961791;28;20053;-83
2023/06/21 02:16:58;;;;;;;11.90;9.75;;;;;;;27.61;37.57;101294.44;4971660;28;20762;-82
2023/06/21 02:19:24;;;;;;;18.75;10.93;;;;;;;27.59;37.36;101291.13;4968666;28;20061;-82
2023/06/21 02:21:54;;;;;;;12.07;9.27;;;;;;;26.40;37.41;101094.69;4955614;28;20140;-83
2023/06/21 02:24:29;;;;;;;13.93;9.73;;;;;;;27.51;37.36;101269.66;4949733;28;20050;-82
2023/06/21 02:27:00;;;;;;;15.35;10.98;;;;;;;26.85;37.42;101162.41;4958105;28;20376;-82
2023/06/21 02:29:36;;;;;;;18.88;9.93;;;;;;;26.82;37.69;101173.72;4944434;28;20044;-82
2023/06/21 02:32:10;;;;;;;20.27;10.43;;;;;;;27.05;37.97;101227.50;4945982;28;20132;-82
2023/06/21 02:37:50;;;;;;;15.77;10.20;;;;;;;27.19;38.54;101278.06;4965561;28;20064;-82
2023/06/21 02:40:20;;;;;;;13.82;10.25;;;;;;;27.29;38.97;101293.88;4977567;28;20088;-83
2023/06/21 02:42:57;;;;;;;15.82;11.32;;;;;;;27.26;39.28;101300.63;4966477;28;20532;-83
2023/06/21 02:45:31;;;;;;;17.25;10.23;;;;;;;27.07;39.02;101268.97;4969483;28;20132;-83
2023/06/21 02:48:19;;;;;;;12.82;10.02;;;;;;;27.29;38.74;101307.50;4984153;28;20119;-82
2023/06/21 02:50:50;;;;;;;16.80;9.77;;;;;;;27.32;38.66;101296.13;5004577;28;20076;-82
2023/06/21 02:53:21;;;;;;;19.25;10.35;;;;;;;27.37;38.63;101307.16;4971664;28;20049;-83
2023/06/21 02:55:48;;;;;;;17.58;10.70;;;;;;;27.23;38.20;101267.53;4968934;28;20056;-82
2023/06/21 02:58:14;;;;;;;13.15;9.93;;;;;;;27.24;38.15;101264.56;4986307;28;20050;-81
2023/06/21 03:00:41;;;;;;;15.20;9.93;;;;;;;27.43;38.60;101294.50;4979074;28;20594;-82
2023/06/21 03:03:14;;;;;;;13.32;10.68;;;;;;;27.45;38.92;101295.97;4967539;28;20058;-83
2023/06/21 03:05:45;;;;;;;15.70;10.68;;;;;;;27.22;38.94;101271.31;4964474;28;20078;-83
2023/06/21 03:08:15;;;;;;;17.90;11.43;;;;;;;27.24;39.70;101307.34;4969186;28;20065;-83
2023/06/21 03:10:52;;;;;;;14.55;11.15;;;;;;;26.93;40.01;101278.38;4967352;28;20145;-83
2023/06/21 03:13:19;;;;;;;18.80;11.20;;;;;;;26.95;40.34;101298.88;4962718;28;20053;-84
2023/06/21 03:15:46;;;;;;;14.52;11.27;;;;;;;26.96;40.46;101302.44;4950862;28;20084;-83
2023/06/21 03:18:15;;;;;;;13.73;10.93;;;;;;;26.90;40.21;101309.63;4968403;28;20527;-84
2023/06/21 03:20:47;;;;;;;14.00;10.20;;;;;;;26.46;40.06;101232.59;4979934;28;20142;-83
2023/06/21 03:23:20;;;;;;;17.65;11.35;;;;;;;26.85;40.38;101314.94;4970002;28;20610;-83
2023/06/21 03:25:47;;;;;;;17.17;10.68;;;;;;;26.78;40.39;101303.28;5015223;28;20057;-84
2023/06/21 03:28:14;;;;;;;13.52;10.35;;;;;;;26.82;40.61;101315.38;4967792;28;20457;-83
2023/06/21 03:30:46;;;;;;;19.77;11.55;;;;;;;26.51;40.58;101262.72;4964955;28;20307;-83
2023/06/21 03:33:16;;;;;;;15.93;10.82;;;;;;;26.70;40.64;101295.41;4977464;28;20519;-84
2023/06/21 03:35:47;;;;;;;19.58;11.10;;;;;;;26.58;40.41;101282.56;4958950;28;20477;-84
2023/06/21 03:38:25;;;;;;;15.73;9.95;;;;;;;26.69;40.80;101300.03;4966225;28;20135;-82
2023/06/21 03:41:06;;;;;;;16.50;10.07;;;;;;;26.51;41.02;101275.50;4961621;28;20400;-83
2023/06/21 03:43:43;;;;;;;17.10;10.52;;;;;;;26.54;41.20;101281.34;4958692;28;20722;-82
2023/06/21 03:46:19;;;;;;;16.35;10.50;;;;;;;26.39;40.99;101261.78;4959801;28;20483;-82
2023/06/21 03:48:48;;;;;;;18.52;11.27;;;;;;;26.42;40.96;101264.06;4957874;28;20056;-83
2023/06/21 03:51:22;;;;;;;17.38;10.40;;;;;;;26.76;40.93;101321.75;4989493;28;20042;-83
2023/06/21 03:53:52;;;;;;;15.57;11.45;;;;;;;26.43;40.76;101280.16;4971078;28;20053;-83
2023/06/21 03:56:19;;;;;;;16.30;10.88;;;;;;;26.61;40.75;101309.31;4990569;28;20517;-82
2023/06/21 03:58:45;;;;;;;20.23;11.27;;;;;;;26.61;41.14;101320.22;5002297;28;20087;-82
2023/06/21 04:01:12;;;;;;;17.52;10.55;;;;;;;26.57;41.13;101324.44;5011696;28;20463;-83
2023/06/21 04:03:39;;;;;;;16.73;10.60;;;;;;;26.62;41.31;101342.81;5000677;28;20788;-82
2023/06/21 04:06:06;;;;;;;20.15;11.10;;;;;;;26.11;41.15;101259.53;4967968;28;20542;-82
2023/06/21 04:08:34;;;;;;;17.58;10.93;;;;;;;26.60;41.74;101343.06;4972633;28;20317;-83
2023/06/21 04:11:06;;;;;;;14.18;10.55;;;;;;;25.68;41.81;101198.59;4961673;28;20041;-82
2023/06/21 04:13:54;;;;;;;16.63;10.70;;;;;;;26.32;41.84;101308.13;4975127;28;20103;-83
2023/06/21 04:16:29;;;;;;;18.42;11.85;;;;;;;26.21;42.16;101293.38;4953887;28;20045;-82
2023/06/21 04:18:56;;;;;;;15.80;11.23;;;;;;;26.37;42.20;101340.13;4969874;28;20051;-83
2023/06/21 04:21:26;;;;;;;20.08;11.25;;;;;;;26.48;42.81;101361.13;4969630;28;20080;-82
2023/06/21 04:23:53;;;;;;;16.77;11.45;;;;;;;26.32;41.95;101326.34;4967553;28;20061;-82
2023/06/21 04:26:22;;;;;;;17.67;11.18;;;;;;;26.39;42.85;101327.13;4990668;28;20219;-81
2023/06/21 04:29:00;;;;;;;17.55;11.68;;;;;;;26.53;42.62;101360.47;4971546;28;20686;-82
2023/06/21 04:31:37;;;;;;;26.25;12.40;;;;;;;26.49;43.32;101346.50;4987090;28;20568;-83
2023/06/21 04:34:08;;;;;;;21.50;11.98;;;;;;;26.53;43.72;101355.91;5014268;28;20394;-83
2023/06/21 04:36:38;;;;;;;22.20;11.88;;;;;;;26.55;43.26;101352.94;4988877;28;20124;-83
2023/06/21 04:39:05;;;;;;;17.90;10.63;;;;;;;26.37;42.50;101293.84;4996006;28;20210;-83
2023/06/21 04:41:35;;;;;;;28.23;11.45;;;;;;;26.38;43.64;101299.03;5000635;28;20042;-83
2023/06/21 04:44:03;;;;;;;14.13;11.20;;;;;;;26.16;44.02;101279.56;4998279;28;20057;-83
2023/06/21 04:46:35;;;;;;;19.98;11.90;;;;;;;26.47;43.68;101326.81;4989053;28;20079;-82
2023/06/21 04:49:08;;;;;;;21.80;11.70;;;;;;;26.41;43.90;101328.56;4981281;28;20387;-84
2023/06/21 04:51:37;;;;;;;18.20;11.38;;;;;;;26.63;43.81;101350.78;5001213;28;20042;-84
2023/06/21 04:54:06;;;;;;;16.52;11.43;;;;;;;25.46;43.92;101164.69;4975306;28;20052;-84
2023/06/21 04:56:37;;;;;;;14.18;11.40;;;;;;;26.04;43.67;101261.50;4976380;28;20581;-83
2023/06/21 04:59:08;;;;;;;15.80;11.80;;;;;;;26.63;43.96;101353.50;4979134;28;20169;-84
2023/06/21 05:01:35;;;;;;;37.40;25.70;;;;;;;26.45;44.55;101320.75;5005650;28;20472;-84
2023/06/21 05:04:02;;;;;;;20.65;12.63;;;;;;;26.51;44.38;101329.94;5004894;28;20056;-83
2023/06/21 05:06:28;;;;;;;16.58;11.32;;;;;;;26.58;44.47;101337.00;5005988;28;20562;-83
2023/06/21 05:08:56;;;;;;;21.40;11.73;;;;;;;26.70;44.61;101355.31;4997431;28;20132;-84
2023/06/21 05:11:24;;;;;;;16.85;11.73;;;;;;;26.67;44.74;101345.69;4977082;28;20092;-83
2023/06/21 05:13:51;;;;;;;16.42;11.90;;;;;;;26.42;44.84;101299.44;4976885;28;20189;-83
2023/06/21 05:16:17;;;;;;;18.77;12.25;;;;;;;26.41;44.89;101292.34;4980505;28;20057;-83
2023/06/21 05:18:46;;;;;;;19.20;12.13;;;;;;;26.51;44.76;101303.53;4994624;28;20445;-83
2023/06/21 05:21:13;;;;;;;17.02;12.55;;;;;;;26.82;44.86;101343.47;5002257;28;20065;-82
2023/06/21 05:23:39;;;;;;;20.30;11.48;;;;;;;26.34;45.17;101245.31;4985410;28;20072;-83
2023/06/21 05:26:11;;;;;;;15.50;11.15;;;;;;;27.08;44.77;101357.81;4978175;28;20054;-83
2023/06/21 05:28:38;;;;;;;19.48;12.25;;;;;;;27.14;44.40;101350.63;4994197;28;20053;-82
2023/06/21 05:31:05;;;;;;;25.10;12.10;;;;;;;27.13;44.50;101335.34;5016252;28;20528;-83
2023/06/21 05:33:34;;;;;;;21.80;11.23;;;;;;;27.49;42.70;101365.31;4988654;28;20049;-84
2023/06/21 05:36:02;;;;;;;18.23;11.90;;;;;;;27.22;43.08;101306.75;5001274;28;20462;-82
2023/06/21 05:38:28;;;;;;;24.23;11.63;;;;;;;27.60;43.08;101360.13;4994665;28;20479;-82
2023/06/21 05:40:58;;;;;;;19.38;11.98;;;;;;;27.71;42.64;101370.25;4999454;28;20049;-81
2023/06/21 05:43:24;;;;;;;21.25;11.88;;;;;;;27.82;42.23;101380.41;4993548;28;20583;-83
2023/06/21 05:45:51;;;;;;;24.35;11.82;;;;;;;27.78;42.85;101360.06;4994007;28;20140;-83
2023/06/21 05:48:18;;;;;;;22.13;11.27;;;;;;;27.95;42.40;101378.56;4996621;28;20279;-83
2023/06/21 05:50:51;;;;;;;16.52;11.25;;;;;;;28.01;41.57;101377.59;4978488;28;20111;-84
2023/06/21 05:53:19;;;;;;;18.80;10.98;;;;;;;28.14;41.52;101391.06;4987493;28;20041;-83
2023/06/21 05:55:46;;;;;;;16.00;11.02;;;;;;;27.96;41.50;101348.28;4996847;28;20084;-83
2023/06/21 05:58:13;;;;;;;16.02;11.05;;;;;;;28.27;40.09;101371.72;4991712;28;20398;-83
2023/06/21 06:00:39;;;;;;;17.88;11.15;;;;;;;28.05;40.33;101346.06;5016589;28;20475;-83
2023/06/21 06:03:08;;;;;;;16.20;11.93;;;;;;;28.03;40.26;101337.25;5017559;28;20118;-83
2023/06/21 06:05:41;;;;;;;19.85;11.50;;;;;;;28.27;40.61;101366.25;4981538;28;20751;-83
2023/06/21 06:08:18;;;;;;;17.20;10.98;;;;;;;28.32;39.49;101374.56;4996721;28;20045;-83
2023/06/21 06:10:45;;;;;;;16.38;10.75;;;;;;;28.30;40.40;101375.88;4995903;28;20487;-83
2023/06/21 06:13:11;;;;;;;19.70;10.25;;;;;;;28.04;40.93;101333.50;4987463;28;20370;-84
2023/06/21 06:15:38;;;;;;;16.98;11.45;;;;;;;28.11;40.50;101347.84;5016177;28;20056;-84
2023/06/21 06:18:05;;;;;;;12.52;10.10;;;;;;;28.21;40.22;101352.75;4974523;28;20093;-84
2023/06/21 06:20:36;;;;;;;18.73;10.82;;;;;;;28.15;39.41;101321.72;4997249;28;20303;-83
2023/06/21 06:23:03;;;;;;;17.13;10.48;;;;;;;28.33;39.80;101365.31;4982046;28;20052;-82
2023/06/21 06:25:33;;;;;;;20.55;11.20;;;;;;;28.46;39.95;101385.31;4963771;28;20049;-81
2023/06/21 06:28:00;;;;;;;14.00;10.52;;;;;;;28.10;39.39;101321.63;4967565;28;20453;-82
2023/06/21 06:30:30;;;;;;;14.82;11.07;;;;;;;28.46;39.05;101371.66;4985775;28;20398;-82
2023/06/21 06:32:56;;;;;;;15.98;10.73;;;;;;;28.25;39.31;101341.09;5005836;28;20646;-83
2023/06/21 06:35:24;;;;;;;15.93;10.77;;;;;;;28.64;39.30;101392.53;4988065;28;20571;-83
2023/06/21 06:37:54;;;;;;;;;;;;;;;28.74;39.22;101401.81;4996026;28;20049;-84
2023/06/21 06:40:27;;;;;;;16.50;10.82;;;;;;;28.63;38.59;101369.88;5012754;28;20482;-85
2023/06/21 06:43:00;;;;;;;16.25;10.65;;;;;;;28.65;38.68;101373.19;4997246;28;20056;-85
2023/06/21 06:45:33;;;;;;;18.25;11.18;;;;;;;28.46;38.55;101317.84;5023720;28;20157;-85
2023/06/21 06:48:08;;;;;;;16.75;11.60;;;;;;;28.84;38.26;101386.75;5005938;28;20049;-82
2023/06/21 06:50:38;;;;;;;15.73;10.18;;;;;;;28.98;37.49;101382.66;4981055;28;20140;-84
2023/06/21 06:53:09;;;;;;;15.80;10.63;;;;;;;28.80;37.57;101369.16;4994682;28;20404;-84
2023/06/21 06:55:35;;;;;;;16.13;10.02;;;;;;;28.83;37.96;101376.84;5012844;28;20263;-83
2023/06/21 06:58:02;;;;;;;14.93;10.68;;;;;;;28.90;37.77;101372.09;5007129;28;20276;-83
2023/06/21 07:00:32;;;;;;;18.05;10.25;;;;;;;28.91;37.78;101368.28;4997198;28;20053;-84
2023/06/21 07:03:01;;;;;;;19.77;10.38;;;;;;;28.90;38.03;101363.91;5007568;28;20053;-83
2023/06/21 07:05:29;;;;;;;17.15;10.98;;;;;;;29.11;38.41;101393.38;4990749;28;20399;-84
2023/06/21 07:08:01;;;;;;;21.92;11.05;;;;;;;28.50;38.08;101274.53;4969074;28;20132;-83
2023/06/21 07:10:38;;;;;;;18.63;10.90;;;;;;;29.19;37.76;101387.50;4929609;28;20412;-84
2023/06/21 07:13:11;;;;;;;24.67;11.25;;;;;;;28.87;37.89;101342.53;4971061;28;20431;-83
2023/06/21 07:15:43;;;;;;;20.98;11.95;;;;;;;28.75;38.62;101348.81;4971855;28;20537;-83
2023/06/21 07:18:13;;;;;;;18.02;11.43;;;;;;;29.03;39.35;101396.44;4988231;28;20128;-82
2023/06/21 07:20:39;;;;;;;21.58;11.00;;;;;;;29.12;39.25;101392.28;4990756;28;20328;-82
2023/06/21 07:23:12;;;;;;;18.35;10.32;;;;;;;29.19;39.29;101401.19;5000777;28;20048;-82
2023/06/21 07:25:42;;;;;;;17.00;11.63;;;;;;;29.06;38.96;101365.06;4979766;28;20051;-81
2023/06/21 07:28:12;;;;;;;22.38;11.07;;;;;;;29.22;39.15;101382.63;4996131;28;20053;-81
2023/06/21 07:30:39;;;;;;;19.60;11.25;;;;;;;28.86;38.99;101316.25;4970416;28;20114;-84
2023/06/21 07:33:09;;;;;;;21.48;12.18;;;;;;;29.16;39.28;101368.88;4983413;28;20137;-83
2023/06/21 07:35:41;;;;;;;17.48;10.75;;;;;;;29.40;38.98;101396.16;4980807;28;20045;-82
2023/06/21 07:38:11;;;;;;;16.02;10.32;;;;;;;29.50;38.36;101396.34;5009981;28;20052;-84
2023/06/21 07:40:37;;;;;;;14.93;10.18;;;;;;;29.39;37.90;101384.34;5002560;28;20381;-84
2023/06/21 07:43:08;;;;;;;12.88;10.52;;;;;;;28.40;37.33;101195.06;5004882;28;20064;-83
2023/06/21 07:45:34;;;;;;;16.52;10.35;;;;;;;28.50;37.00;101189.88;4992635;28;20182;-84
2023/06/21 07:48:01;;;;;;;12.75;9.27;;;;;;;29.25;37.46;101328.31;4991374;28;20045;-83
2023/06/21 07:50:33;;;;;;;18.13;10.43;;;;;;;29.41;37.47;101348.56;4987973;28;20056;-83
2023/06/21 07:53:12;;;;;;;16.05;10.57;;;;;;;28.69;37.45;101215.94;4982352;28;20487;-81
2023/06/21 07:55:42;;;;;;;16.63;10.77;;;;;;;28.58;37.01;101173.09;4979165;28;20106;-82
2023/06/21 07:58:10;;;;;;;20.77;11.43;;;;;;;29.58;37.76;101343.97;4982256;28;20068;-81
2023/06/21 08:00:36;;;;;;;17.48;10.80;;;;;;;29.97;36.80;101373.44;4994333;28;20044;-82
2023/06/21 08:03:10;;;;;;;;;;;;;;;29.96;37.44;101378.06;4992123;28;20244;-82
2023/06/21 08:05:37;;;;;;;13.63;10.77;;;;;;;29.92;37.48;101365.94;4997758;28;20044;-83
2023/06/21 08:08:04;;;;;;;16.98;10.80;;;;;;;29.94;37.86;101354.75;5004976;28;20534;-82
2023/06/21 08:10:32;;;;;;;17.65;10.75;;;;;;;30.08;37.33;101368.97;4998174;28;20045;-82
2023/06/21 08:12:58;;;;;;;23.10;12.15;;;;;;;29.68;37.26;101304.22;5000946;28;20055;-80
2023/06/21 08:15:25;;;;;;;21.55;10.57;;;;;;;30.17;36.94;101378.41;4978283;28;20144;-82
2023/06/21 08:17:55;;;;;;;18.38;11.40;;;;;;;30.06;37.03;101361.00;5002313;28;20057;-82
2023/06/21 08:20:22;;;;;;;17.13;10.85;;;;;;;30.12;37.79;101381.06;5018306;28;20057;-82
2023/06/21 08:22:52;;;;;;;16.70;11.27;;;;;;;30.12;37.69;101389.28;4994783;28;20118;-82
2023/06/21 08:25:19;;;;;;;14.75;11.45;;;;;;;30.21;36.80;101390.53;5004017;28;20342;-82
2023/06/21 08:27:48;;;;;;;15.02;10.98;;;;;;;30.03;37.24;101348.63;4981393;28;20502;-82
2023/06/21 08:30:14;;;;;;;15.60;11.82;;;;;;;30.26;36.58;101387.91;5020942;28;20285;-82
2023/06/21 08:32:44;;;;;;;18.48;11.10;;;;;;;30.36;37.32;101393.53;4989295;28;20128;-83
2023/06/21 08:35:12;;;;;;;16.70;11.77;;;;;;;30.30;37.00;101369.09;4994595;28;20056;-82
2023/06/21 08:37:40;;;;;;;18.98;11.60;;;;;;;30.17;36.91;101351.03;4979799;28;20049;-82
2023/06/21 08:40:12;;;;;;;21.10;11.52;;;;;;;30.31;37.15;101368.81;4996439;28;20049;-82
2023/06/21 08:42:43;;;;;;;15.55;11.23;;;;;;;30.21;37.18;101354.94;5022120;28;20317;-82
2023/06/21 08:45:10;;;;;;;15.75;11.73;;;;;;;30.12;37.44;101342.72;5017243;28;20064;-83
2023/06/21 08:47:37;;;;;;;14.60;11.05;;;;;;;30.37;37.11;101388.91;4991328;28;20301;-82
2023/06/21 08:50:05;;;;;;;24.48;12.30;;;;;;;30.05;37.35;101321.00;4983677;28;20064;-83
2023/06/21 08:52:37;;;;;;;20.90;12.25;;;;;;;30.37;37.54;101383.44;5001605;28;20431;-83
2023/06/21 08:55:10;;;;;;;21.13;11.75;;;;;;;30.21;38.17;101368.63;4998040;28;20049;-82
2023/06/21 08:57:58;;;;;;;20.50;11.73;;;;;;;30.13;37.89;101339.75;4997722;28;20127;-82
2023/06/21 09:00:50;;;;;;;19.10;11.90;;;;;;;30.69;37.72;101388.31;4988274;28;20267;-83
2023/06/21 09:03:26;;;;;;;20.10;12.30;;;;;;;30.30;37.33;101312.41;4993085;28;20380;-83
2023/06/21 09:05:59;;;;;;;17.92;12.27;;;;;;;30.76;38.19;101376.06;5014934;28;20521;-83
2023/06/21 09:08:31;;;;;;;20.20;11.70;;;;;;;30.93;36.98;101383.47;5011308;28;20510;-81
2023/06/21 09:11:03;;;;;;;19.17;11.77;;;;;;;31.09;36.80;101371.59;4967335;28;20042;-82
2023/06/21 09:13:35;;;;;;;29.55;14.27;;;;;;;31.15;35.90;101356.88;4968462;28;20049;-83
2023/06/21 09:16:10;;;;;;;22.20;12.27;;;;;;;31.18;36.29;101383.78;5010317;28;20557;-83
2023/06/21 09:18:39;;;;;;;20.27;12.82;;;;;;;31.12;36.18;101357.38;4995798;28;20057;-81
2023/06/21 09:21:11;;;;;;;19.88;11.98;;;;;;;30.50;35.58;101237.06;4983168;28;20476;-81
2023/06/21 09:23:40;;;;;;;17.65;11.23;;;;;;;30.72;35.82;101270.78;4973619;28;20431;-84
2023/06/21 09:26:09;;;;;;;17.58;12.95;;;;;;;30.86;36.41;101294.00;4985235;28;20140;-84
2023/06/21 09:28:37;;;;;;;21.55;12.65;;;;;;;31.06;35.87;101309.88;4983053;28;20049;-83
2023/06/21 09:31:04;;;;;;;26.35;12.73;;;;;;;31.39;36.50;101373.91;4986690;28;20045;-83
2023/06/21 09:33:31;;;;;;;16.65;11.38;;;;;;;31.46;36.49;101379.22;4982024;28;20056;-83
2023/06/21 09:36:00;;;;;;;23.92;12.45;;;;;;;31.58;36.14;101385.38;4989365;28;20110;-84
2023/06/21 09:38:33;;;;;;;22.05;12.30;;;;;;;31.58;34.77;101366.16;5006259;28;20052;-84
2023/06/21 09:41:14;;;;;;;27.88;12.07;;;;;;;30.83;35.52;101242.44;4974108;28;20084;-84
2023/06/21 09:44:01;;;;;;;16.17;11.70;;;;;;;31.16;34.92;101287.22;4939786;28;20688;-85
2023/06/21 09:46:46;;;;;;;17.75;11.23;;;;;;;31.68;35.11;101374.50;4979576;28;20053;-84
2023/06/21 09:49:16;;;;;;;18.02;11.20;;;;;;;31.15;35.11;101263.63;4973658;28;20057;-83
2023/06/21 09:51:45;;;;;;;14.75;11.82;;;;;;;31.08;34.61;101225.44;5008168;28;20065;-83
2023/06/21 09:54:15;;;;;;;16.27;11.00;;;;;;;31.77;34.24;101352.06;4998915;28;20045;-84
2023/06/21 09:56:42;;;;;;;16.20;11.95;;;;;;;31.98;34.34;101380.56;4994686;28;20054;-84
2023/06/21 09:59:19;;;;;;;19.98;12.18;;;;;;;31.55;34.05;101306.31;4980942;28;20057;-83
2023/06/21 10:01:54;;;;;;;20.88;12.07;;;;;;;31.62;35.49;101317.91;4943205;28;20172;-84
2023/06/21 10:04:59;;;;;;;18.58;12.13;;;;;;;32.23;33.40;101368.97;4922342;28;20504;-83
2023/06/21 10:07:48;;;;;;;18.13;11.82;;;;;;;32.31;35.18;101379.47;4924372;28;20526;-84
2023/06/21 10:10:28;;;;;;;16.42;11.82;;;;;;;32.50;34.75;101378.00;4918561;28;20569;-84
2023/06/21 10:13:08;;;;;;;20.77;12.85;;;;;;;32.37;34.39;101348.19;4946877;28;20069;-84
2023/06/21 10:15:52;;;;;;;18.98;11.68;;;;;;;32.52;33.73;101345.56;4947069;28;20640;-84
2023/06/21 10:18:25;;;;;;;18.08;11.95;;;;;;;32.68;34.63;101356.66;4945388;28;20473;-83
2023/06/21 10:21:07;;;;;;;21.05;12.50;;;;;;;32.27;34.82;101265.72;4939793;28;20152;-83
2023/06/21 10:23:47;;;;;;;18.35;11.98;;;;;;;32.77;33.29;101325.66;5010036;28;20045;-83
2023/06/21 10:26:15;;;;;;;21.48;12.18;;;;;;;33.26;33.45;101363.00;5003983;28;20073;-83
2023/06/21 10:28:45;;;;;;;19.20;13.07;;;;;;;33.01;33.85;101300.44;5011221;28;20148;-84
2023/06/21 10:31:15;;;;;;;15.48;11.35;;;;;;;33.35;34.08;101350.38;4987614;28;20057;-83
2023/06/21 10:33:50;;;;;;;19.23;11.85;;;;;;;33.30;33.81;101320.06;5010224;28;20230;-83
2023/06/21 10:36:26;;;;;;;19.40;11.25;;;;;;;33.73;33.55;101367.53;4980863;28;20568;-84
2023/06/21 10:39:02;;;;;;;18.48;11.90;;;;;;;33.78;33.42;101364.78;4973031;28;20049;-83
2023/06/21 10:41:34;;;;;;;19.25;11.68;;;;;;;33.86;33.05;101357.06;4945753;28;20080;-83
2023/06/21 10:44:16;;;;;;;18.50;12.73;;;;;;;33.73;32.83;101304.19;4909626;28;20061;-84
2023/06/21 10:47:00;;;;;;;32.58;13.48;;;;;;;34.07;32.56;101336.69;4959917;28;20088;-84
2023/06/21 10:49:29;;;;;;;21.58;12.48;;;;;;;33.57;32.16;101244.72;4966624;28;20144;-83
2023/06/21 10:52:03;;;;;;;18.65;12.38;;;;;;;33.54;31.08;101192.97;4993049;28;20409;-83
2023/06/21 10:54:41;;;;;;;19.48;12.02;;;;;;;34.53;31.72;101347.69;4946752;28;20266;-84
2023/06/21 10:57:18;;;;;;;20.25;11.80;;;;;;;34.23;31.45;101287.97;4940831;28;20136;-84
2023/06/21 11:00:07;;;;;;;15.57;12.70;;;;;;;34.46;31.28;101316.81;4993275;28;20060;-84
2023/06/21 11:02:35;;;;;;;15.18;12.18;;;;;;;34.55;31.83;101304.13;4978410;28;20136;-83
2023/06/21 11:05:33;;;;;;;18.27;12.70;;;;;;;34.87;31.13;101330.50;4993407;28;20060;-84
2023/06/21 11:08:04;;;;;;;15.43;12.13;;;;;;;34.71;31.38;101288.38;4986754;28;20065;-83
2023/06/21 11:10:49;;;;;;;14.63;12.32;;;;;;;35.02;31.64;101300.06;5005207;28;20147;-83
2023/06/21 11:13:39;;;;;;;17.70;12.23;;;;;;;35.28;30.71;101322.88;5020140;28;20103;-83
2023/06/21 11:16:17;;;;;;;16.92;12.30;;;;;;;35.07;31.74;101305.56;5003342;28;20091;-84
2023/06/21 11:18:59;;;;;;;15.18;12.90;;;;;;;34.25;30.93;101143.28;4992881;28;20395;-83
2023/06/21 11:21:47;;;;;;;19.23;11.65;;;;;;;34.66;30.87;101176.19;5002781;28;20053;-84
2023/06/21 11:24:20;;;;;;;19.42;11.63;;;;;;;35.57;30.56;101288.19;5004720;28;20109;-82
2023/06/21 11:26:58;;;;;;;17.15;12.13;;;;;;;35.89;30.01;101318.84;5008804;28;20078;-83
2023/06/21 11:29:27;;;;;;;18.35;12.07;;;;;;;36.08;29.88;101321.72;5024606;28;20494;-84
2023/06/21 11:32:18;;;;;;;15.57;10.82;;;;;;;36.15;28.92;101310.38;4996744;28;20076;-84
2023/06/21 11:35:00;;;;;;;11.55;9.60;;;;;;;36.00;30.05;101280.06;4981783;28;20050;-84